CheckWX is a tool to help pilots better visualize weather data.  It is not intended as a substitute for an official pre-flight weather briefing.

21:47:59 UTC

NWWW TAF
La Tontouta International Airport
Nouméa, New Caledonia
TAF NWWW 201700Z 2018/2118 VRB02KT 9999 FEW050 TEMPO 2100/2106 SHRA FEW020TCU

Mar-20@
18:00 UTC

Mar-20 @ 18:00 UTC

Mar-21@
18:00 UTC

Mar-21 @ 18:00 UTC

TAF NWWW 201700Z 2018/2118 VRB02KT 9999 FEW050
Wind
  • Variable at 2 KTS
Cloud Levels
  • Few at 5,000' AGL

Mar-21@
00:00 UTC

Mar-21 @ 00:00 UTC

Mar-21@
06:00 UTC

Mar-21 @ 06:00 UTC

TEMPO 2100/2106 SHRA FEW020TCU

Temporary

Temporary Changes expected for less than half the time period

Conditions
Rain
Cloud Levels
  • Few at 2,000' AGL